createdAt,value
2022-08-26T00:02:07.248Z,7.22
2022-08-26T00:04:35.485Z,6.50
2022-08-26T00:07:03.546Z,6.72
2022-08-26T00:09:37.255Z,7.32
2022-08-26T00:12:07.718Z,6.60
2022-08-26T00:14:37.188Z,7.00
2022-08-26T00:17:06.395Z,6.95
2022-08-26T00:19:36.600Z,6.90
2022-08-26T00:22:04.510Z,6.85
2022-08-26T00:24:32.634Z,6.45
2022-08-26T00:27:00.539Z,7.22
2022-08-26T00:29:29.013Z,6.40
2022-08-26T00:31:59.765Z,7.30
2022-08-26T00:34:29.651Z,7.03
2022-08-26T00:36:57.735Z,7.68
2022-08-26T00:39:25.647Z,6.97
2022-08-26T00:41:53.469Z,6.53
2022-08-26T00:44:21.574Z,6.82
2022-08-26T00:46:52.350Z,6.93
2022-08-26T00:49:25.802Z,7.32
2022-08-26T00:51:57.624Z,7.63
2022-08-26T00:54:32.301Z,8.50
2022-08-26T00:57:04.090Z,7.53
2022-08-26T00:59:33.623Z,7.28
2022-08-26T01:02:03.183Z,7.93
2022-08-26T01:04:34.024Z,7.05
2022-08-26T01:07:04.489Z,7.55
2022-08-26T01:09:33.150Z,6.35
2022-08-26T01:12:03.901Z,7.03
2022-08-26T01:14:34.699Z,8.35
2022-08-26T01:17:07.244Z,8.13
2022-08-26T01:19:41.786Z,8.00
2022-08-26T01:22:13.353Z,7.15
2022-08-26T01:24:43.550Z,7.82
2022-08-26T01:27:15.379Z,7.38
2022-08-26T01:29:45.262Z,7.75
2022-08-26T01:32:21.596Z,7.72
2022-08-26T01:34:51.245Z,6.82
2022-08-26T01:37:22.884Z,7.47
2022-08-26T01:39:54.307Z,8.18
2022-08-26T01:42:24.981Z,7.10
2022-08-26T01:44:58.136Z,8.43
2022-08-26T01:47:27.981Z,8.32
2022-08-26T01:50:00.344Z,7.57
2022-08-26T01:52:31.288Z,8.82
2022-08-26T01:55:01.605Z,8.18
2022-08-26T01:57:30.100Z,8.32
2022-08-26T02:00:00.541Z,9.98
2022-08-26T02:02:28.953Z,8.98
2022-08-26T02:05:01.266Z,9.50
2022-08-26T02:07:29.582Z,9.65
2022-08-26T02:09:57.450Z,9.85
2022-08-26T02:12:27.685Z,9.23
2022-08-26T02:15:00.885Z,9.82
2022-08-26T02:17:34.907Z,8.63
2022-08-26T02:20:04.314Z,10.23
2022-08-26T02:22:34.223Z,8.77
2022-08-26T02:25:12.763Z,9.25
2022-08-26T02:27:42.176Z,9.60
2022-08-26T02:30:14.063Z,9.27
2022-08-26T02:32:42.514Z,10.45
2022-08-26T02:35:12.477Z,11.73
2022-08-26T02:37:41.855Z,12.30
2022-08-26T02:40:12.899Z,12.55
2022-08-26T02:42:43.910Z,10.55
2022-08-26T02:45:12.857Z,9.95
2022-08-26T02:47:40.855Z,10.63
2022-08-26T02:50:09.035Z,9.63
2022-08-26T02:52:36.878Z,9.82
2022-08-26T02:55:06.955Z,9.10
2022-08-26T02:57:36.014Z,9.05
2022-08-26T03:00:06.857Z,9.98
2022-08-26T03:02:34.655Z,8.38
2022-08-26T03:05:02.573Z,9.48
2022-08-26T03:07:31.151Z,9.38
2022-08-26T03:09:59.302Z,10.52
2022-08-26T03:12:27.533Z,10.48
2022-08-26T03:14:56.192Z,10.02
2022-08-26T03:17:25.303Z,10.07
2022-08-26T03:19:57.011Z,10.63
2022-08-26T03:22:25.329Z,11.63
2022-08-26T03:24:53.369Z,10.27
2022-08-26T03:27:21.542Z,12.32
2022-08-26T03:30:07.124Z,10.20
2022-08-26T03:32:36.429Z,10.27
2022-08-26T03:35:06.075Z,11.50
2022-08-26T03:37:34.287Z,10.93
2022-08-26T03:40:02.115Z,10.07
2022-08-26T03:42:29.936Z,10.60
2022-08-26T03:44:57.930Z,10.32
2022-08-26T03:47:25.803Z,10.35
2022-08-26T03:49:55.003Z,11.20
2022-08-26T03:52:23.282Z,10.68
2022-08-26T03:54:51.146Z,11.82
2022-08-26T03:57:19.230Z,11.57
2022-08-26T03:59:47.178Z,12.25
2022-08-26T04:02:16.734Z,12.27
2022-08-26T04:04:45.853Z,11.85
2022-08-26T04:07:15.098Z,12.35
2022-08-26T04:09:42.986Z,12.98
2022-08-26T04:12:12.165Z,11.18
2022-08-26T04:14:40.013Z,11.60
2022-08-26T04:17:07.877Z,12.80
2022-08-26T04:19:35.864Z,12.75
2022-08-26T04:22:03.673Z,13.52
2022-08-26T04:24:33.580Z,14.25
2022-08-26T04:27:03.362Z,12.63
2022-08-26T04:29:31.687Z,13.38
2022-08-26T04:32:00.910Z,13.75
2022-08-26T04:34:29.387Z,12.88
2022-08-26T04:36:58.215Z,14.68
2022-08-26T04:39:27.808Z,15.80
2022-08-26T04:41:57.823Z,15.13
2022-08-26T04:44:27.905Z,19.25
2022-08-26T04:46:56.286Z,19.70
2022-08-26T04:49:25.928Z,19.77
2022-08-26T04:51:54.711Z,20.70
2022-08-26T04:54:22.966Z,21.25
2022-08-26T04:56:53.022Z,20.75
2022-08-26T04:59:22.401Z,23.58
2022-08-26T05:01:53.179Z,20.65
2022-08-26T05:04:22.194Z,19.83
2022-08-26T05:06:51.098Z,18.25
2022-08-26T05:09:20.166Z,17.92
2022-08-26T05:11:52.120Z,17.95
2022-08-26T05:14:23.211Z,19.13
2022-08-26T05:16:51.737Z,19.27
2022-08-26T05:19:19.939Z,17.52
2022-08-26T05:21:49.472Z,15.02
2022-08-26T05:24:18.632Z,14.85
2022-08-26T05:26:47.209Z,15.32
2022-08-26T05:29:16.223Z,15.50
2022-08-26T05:31:46.112Z,17.80
2022-08-26T05:34:13.935Z,16.45
2022-08-26T05:36:42.054Z,16.88
2022-08-26T05:39:10.797Z,15.52
2022-08-26T05:41:40.908Z,16.67
2022-08-26T05:44:11.693Z,15.27
2022-08-26T05:46:41.009Z,16.17
2022-08-26T05:49:12.704Z,15.93
2022-08-26T05:51:41.661Z,15.20
2022-08-26T05:54:10.395Z,15.93
2022-08-26T05:56:38.939Z,14.88
2022-08-26T05:59:14.229Z,15.65
2022-08-26T06:01:43.594Z,15.82
2022-08-26T06:04:13.266Z,15.27
2022-08-26T06:06:41.724Z,14.50
2022-08-26T06:09:12.926Z,14.98
2022-08-26T06:11:40.862Z,14.98
2022-08-26T06:14:11.667Z,15.25
2022-08-26T06:16:43.793Z,16.05
2022-08-26T06:19:15.374Z,15.32
2022-08-26T06:21:51.361Z,15.32
2022-08-26T06:24:40.152Z,14.90
2022-08-26T06:27:10.001Z,14.23
2022-08-26T06:29:39.485Z,14.68
2022-08-26T06:32:08.775Z,16.73
2022-08-26T06:34:38.339Z,15.95
2022-08-26T06:37:07.130Z,16.27
2022-08-26T06:39:35.539Z,16.33
2022-08-26T06:42:09.197Z,15.98
2022-08-26T06:44:39.024Z,15.88
2022-08-26T06:47:08.977Z,15.95
2022-08-26T06:49:38.330Z,15.55
2022-08-26T06:52:07.678Z,15.50
2022-08-26T06:54:36.973Z,15.48
2022-08-26T06:57:06.902Z,14.35
2022-08-26T06:59:35.126Z,15.63
2022-08-26T07:02:03.265Z,15.50
2022-08-26T07:04:31.646Z,15.48
2022-08-26T07:07:00.911Z,16.25
2022-08-26T07:09:30.343Z,16.20
2022-08-26T07:11:58.660Z,15.48
2022-08-26T07:14:26.785Z,16.65
2022-08-26T07:16:55.583Z,16.75
2022-08-26T07:19:30.066Z,15.30
2022-08-26T07:22:03.244Z,14.98
2022-08-26T07:24:32.385Z,14.20
2022-08-26T07:27:01.929Z,14.10
2022-08-26T07:29:31.163Z,13.50
2022-08-26T07:31:59.620Z,13.48
2022-08-26T07:34:27.890Z,14.70
2022-08-26T07:36:56.793Z,14.65
2022-08-26T07:39:26.887Z,14.00
2022-08-26T07:41:54.792Z,15.13
2022-08-26T07:44:22.680Z,14.68
2022-08-26T07:46:53.253Z,14.27
2022-08-26T07:49:22.630Z,13.38
2022-08-26T07:51:51.245Z,12.57
2022-08-26T07:54:19.875Z,12.82
2022-08-26T07:56:49.276Z,12.55
2022-08-26T07:59:19.971Z,12.13
2022-08-26T08:01:51.016Z,12.50
2022-08-26T08:04:25.569Z,12.90
2022-08-26T08:06:54.873Z,13.60
2022-08-26T08:09:23.166Z,13.25
2022-08-26T08:11:54.101Z,11.95
2022-08-26T08:14:22.368Z,11.77
2022-08-26T08:16:51.121Z,12.13
2022-08-26T08:19:23.003Z,12.70
2022-08-26T08:21:51.803Z,12.32
2022-08-26T08:24:20.072Z,12.00
2022-08-26T08:26:48.483Z,12.82
2022-08-26T08:29:17.667Z,12.40
2022-08-26T08:31:56.573Z,12.45
2022-08-26T08:34:27.312Z,11.35
2022-08-26T08:36:55.979Z,12.00
2022-08-26T08:39:24.935Z,12.43
2022-08-26T08:42:10.823Z,12.07
2022-08-26T08:44:44.013Z,12.75
2022-08-26T08:47:20.986Z,12.50
2022-08-26T08:49:49.109Z,11.88
2022-08-26T08:52:28.858Z,11.20
2022-08-26T08:54:58.111Z,10.18
2022-08-26T08:57:34.114Z,10.55
2022-08-26T09:00:12.001Z,11.68
2022-08-26T09:02:51.357Z,12.07
2022-08-26T09:05:23.442Z,9.85
2022-08-26T09:07:56.011Z,10.20
2022-08-26T09:10:31.519Z,10.73
2022-08-26T09:13:00.338Z,9.88
2022-08-26T09:15:40.954Z,10.40
2022-08-26T09:18:23.587Z,11.98
2022-08-26T09:20:57.604Z,11.57
2022-08-26T09:23:26.115Z,12.00
2022-08-26T09:25:57.854Z,13.10
2022-08-26T09:28:28.035Z,13.27
2022-08-26T09:31:13.115Z,13.02
2022-08-26T09:33:42.457Z,14.30
2022-08-26T09:36:22.905Z,13.10
2022-08-26T09:38:53.417Z,14.10
2022-08-26T09:41:26.201Z,13.63
2022-08-26T09:44:15.787Z,14.20
2022-08-26T09:46:52.269Z,12.60
2022-08-26T09:49:36.109Z,12.02
2022-08-26T09:52:21.666Z,11.63
2022-08-26T09:55:02.131Z,11.85
2022-08-26T09:57:33.751Z,11.30
2022-08-26T10:00:03.348Z,10.23
2022-08-26T10:02:47.718Z,10.63
2022-08-26T10:05:19.189Z,11.52
2022-08-26T10:07:51.066Z,11.75
2022-08-26T10:10:23.931Z,12.52
2022-08-26T10:13:06.455Z,12.65
2022-08-26T10:15:50.042Z,13.27
2022-08-26T10:18:26.675Z,11.45
2022-08-26T10:21:05.062Z,11.43
2022-08-26T10:23:42.416Z,10.93
2022-08-26T10:26:15.111Z,10.50
2022-08-26T10:28:50.787Z,9.48
2022-08-26T10:31:29.007Z,11.57
2022-08-26T10:34:00.748Z,11.95
2022-08-26T10:37:10.612Z,13.13
2022-08-26T10:39:44.352Z,12.25
2022-08-26T10:42:22.665Z,11.30
2022-08-26T10:44:54.596Z,11.10
2022-08-26T10:47:33.700Z,11.15
2022-08-26T10:50:04.205Z,10.73
2022-08-26T10:52:42.998Z,9.18
2022-08-26T10:55:17.682Z,9.32
2022-08-26T10:57:50.456Z,8.32
2022-08-26T11:00:40.791Z,8.45
2022-08-26T11:03:25.209Z,8.73
2022-08-26T11:06:22.575Z,7.55
2022-08-26T11:08:51.537Z,7.20
2022-08-26T11:11:45.302Z,6.85
2022-08-26T11:14:46.060Z,6.50
2022-08-26T11:17:57.932Z,7.50
2022-08-26T11:20:35.782Z,8.27
2022-08-26T11:23:40.387Z,8.75
2022-08-26T11:26:32.779Z,8.85
2022-08-26T11:29:12.012Z,7.60
2022-08-26T11:31:57.056Z,7.97
2022-08-26T11:34:55.085Z,7.72
2022-08-26T11:37:30.845Z,7.25
2022-08-26T11:40:04.154Z,7.85
2022-08-26T11:42:37.439Z,7.22
2022-08-26T11:45:18.989Z,7.53
2022-08-26T11:47:49.388Z,7.88
2022-08-26T11:50:20.705Z,8.23
2022-08-26T11:52:53.791Z,7.35
2022-08-26T11:55:24.036Z,7.80
2022-08-26T11:57:54.813Z,9.13
2022-08-26T12:00:24.762Z,9.05
2022-08-26T12:02:53.562Z,8.50
2022-08-26T12:05:27.179Z,9.52
2022-08-26T12:08:02.339Z,9.20
2022-08-26T12:10:33.863Z,8.60
2022-08-26T12:13:03.473Z,8.80
2022-08-26T12:15:33.065Z,8.95
2022-08-26T12:18:20.707Z,8.50
2022-08-26T12:21:00.398Z,9.85
2022-08-26T12:23:39.929Z,9.77
2022-08-26T12:26:14.189Z,9.70
2022-08-26T12:28:47.065Z,8.85
2022-08-26T12:31:23.292Z,9.40
2022-08-26T12:33:52.040Z,9.40
2022-08-26T12:36:27.526Z,9.68
2022-08-26T12:38:58.514Z,9.20
2022-08-26T12:41:48.646Z,11.40
2022-08-26T12:44:42.256Z,11.13
2022-08-26T12:47:31.004Z,10.95
2022-08-26T12:50:17.077Z,10.80
2022-08-26T12:52:54.717Z,9.32
2022-08-26T12:55:25.787Z,8.60
2022-08-26T12:58:12.422Z,9.35
2022-08-26T13:00:43.147Z,9.60
2022-08-26T13:03:46.554Z,9.05
2022-08-26T13:06:17.999Z,9.30
2022-08-26T13:08:47.304Z,9.32
2022-08-26T13:11:20.355Z,11.43
2022-08-26T13:13:51.584Z,13.25
2022-08-26T13:16:20.170Z,12.95
2022-08-26T13:18:48.527Z,13.35
2022-08-26T13:21:19.473Z,13.13
2022-08-26T13:23:48.046Z,14.73
2022-08-26T13:26:15.945Z,13.70
2022-08-26T13:28:44.091Z,13.05
2022-08-26T13:31:15.055Z,15.70
2022-08-26T13:33:45.332Z,14.15
2022-08-26T13:36:16.244Z,15.35
2022-08-26T13:38:44.167Z,15.05
2022-08-26T13:41:17.112Z,14.20
2022-08-26T13:43:51.526Z,15.10
2022-08-26T13:46:20.838Z,15.23
2022-08-26T13:48:48.739Z,13.55
2022-08-26T13:51:18.535Z,14.85
2022-08-26T13:53:46.395Z,14.75
2022-08-26T13:56:14.444Z,13.90
2022-08-26T13:58:42.339Z,13.15
2022-08-26T14:01:10.230Z,13.63
2022-08-26T14:03:39.668Z,12.73
2022-08-26T14:06:07.505Z,12.95
2022-08-26T14:08:36.580Z,13.30
2022-08-26T14:11:04.504Z,13.15
2022-08-26T14:13:32.403Z,12.80
2022-08-26T14:16:01.453Z,14.20
2022-08-26T14:18:33.314Z,12.48
2022-08-26T14:21:02.811Z,11.80
2022-08-26T14:23:30.685Z,14.23
2022-08-26T14:25:58.514Z,11.85
2022-08-26T14:30:59.492Z,12.70
2022-08-26T14:33:29.734Z,12.73
2022-08-26T14:36:17.566Z,12.98
2022-08-26T14:38:47.163Z,12.88
2022-08-26T14:41:17.034Z,12.35
2022-08-26T14:43:49.232Z,12.55
2022-08-26T14:46:18.819Z,12.57
2022-08-26T14:48:46.810Z,12.55
2022-08-26T14:51:14.586Z,12.77
2022-08-26T14:54:00.006Z,14.13
2022-08-26T14:56:31.286Z,13.07
2022-08-26T14:58:59.385Z,12.60
2022-08-26T15:01:30.857Z,12.23
2022-08-26T15:03:59.257Z,12.10
2022-08-26T15:06:27.430Z,12.95
2022-08-26T15:08:55.280Z,12.60
2022-08-26T15:11:23.289Z,14.80
2022-08-26T15:13:52.969Z,14.23
2022-08-26T15:16:20.905Z,14.27
2022-08-26T15:18:48.925Z,14.52
2022-08-26T15:21:16.804Z,16.40
2022-08-26T15:23:47.870Z,14.40
2022-08-26T15:26:17.827Z,15.13
2022-08-26T15:28:46.504Z,15.85
2022-08-26T15:31:16.495Z,15.57
2022-08-26T15:33:44.557Z,15.45
2022-08-26T15:36:12.856Z,14.93
2022-08-26T15:38:42.307Z,14.75
2022-08-26T15:41:10.711Z,15.27
2022-08-26T15:43:39.048Z,16.00
2022-08-26T15:46:11.780Z,13.38
2022-08-26T15:48:41.718Z,13.23
2022-08-26T15:51:20.745Z,13.18
2022-08-26T15:53:51.056Z,14.05
2022-08-26T15:56:19.440Z,13.77
2022-08-26T15:58:47.325Z,12.77
2022-08-26T16:01:18.127Z,13.23
2022-08-26T16:03:57.435Z,14.55
2022-08-26T16:06:28.336Z,13.90
2022-08-26T16:08:57.030Z,12.88
2022-08-26T16:11:25.947Z,14.07
2022-08-26T16:13:54.564Z,14.00
2022-08-26T16:16:23.179Z,14.25
2022-08-26T16:18:51.111Z,13.43
2022-08-26T16:21:22.561Z,13.52
2022-08-26T16:23:50.425Z,13.07
2022-08-26T16:26:20.437Z,13.15
2022-08-26T16:28:48.541Z,12.95
2022-08-26T16:31:17.258Z,13.57
2022-08-26T16:33:46.128Z,13.07
2022-08-26T16:36:14.751Z,13.07
2022-08-26T16:38:49.949Z,13.43
2022-08-26T16:41:18.297Z,13.30
2022-08-26T16:43:46.578Z,13.80
2022-08-26T16:46:16.161Z,14.15
2022-08-26T16:48:45.174Z,14.65
2022-08-26T16:51:13.795Z,14.80
2022-08-26T16:53:43.394Z,15.63
2022-08-26T16:56:14.091Z,14.57
2022-08-26T16:58:42.138Z,16.25
2022-08-26T17:01:10.378Z,15.77
2022-08-26T17:03:38.701Z,15.25
2022-08-26T17:06:07.255Z,16.58
2022-08-26T17:08:35.535Z,16.65
2022-08-26T17:11:05.099Z,15.93
2022-08-26T17:13:35.685Z,14.88
2022-08-26T17:16:05.335Z,17.10
2022-08-26T17:18:34.554Z,17.80
2022-08-26T17:21:04.255Z,16.40
2022-08-26T17:23:32.349Z,16.02
2022-08-26T17:26:00.440Z,16.42
2022-08-26T17:28:29.763Z,16.60
2022-08-26T17:30:58.147Z,15.35
2022-08-26T17:33:26.752Z,16.10
2022-08-26T17:35:55.008Z,14.68
2022-08-26T17:38:23.545Z,16.77
2022-08-26T17:40:51.961Z,15.82
2022-08-26T17:43:20.171Z,15.88
2022-08-26T17:45:49.769Z,15.82
2022-08-26T17:48:17.863Z,15.85
2022-08-26T17:50:49.364Z,15.43
2022-08-26T17:53:19.228Z,15.85
2022-08-26T17:55:47.495Z,16.88
2022-08-26T17:58:17.105Z,16.42
2022-08-26T18:00:45.483Z,16.23
2022-08-26T18:03:14.761Z,15.57
2022-08-26T18:05:43.328Z,15.65
2022-08-26T18:08:11.287Z,16.30
2022-08-26T18:10:39.146Z,17.15
2022-08-26T18:13:06.931Z,16.83
2022-08-26T18:15:35.000Z,15.77
2022-08-26T18:18:02.849Z,15.25
2022-08-26T18:20:32.128Z,15.77
2022-08-26T18:22:59.983Z,14.20
2022-08-26T18:25:27.877Z,15.45
2022-08-26T18:27:55.689Z,16.63
2022-08-26T18:30:24.197Z,16.40
2022-08-26T18:32:52.723Z,15.27
2022-08-26T18:35:21.346Z,16.10
2022-08-26T18:37:50.501Z,14.50
2022-08-26T18:40:18.393Z,16.58
2022-08-26T18:42:47.017Z,16.35
2022-08-26T18:45:21.986Z,16.65
2022-08-26T18:47:49.785Z,16.23
2022-08-26T18:50:18.389Z,14.90
2022-08-26T18:52:46.226Z,15.88
2022-08-26T18:55:15.410Z,17.95
2022-08-26T18:57:43.200Z,17.35
2022-08-26T19:00:12.102Z,15.75
2022-08-26T19:02:40.150Z,15.95
2022-08-26T19:05:08.963Z,19.05
2022-08-26T19:07:39.582Z,19.90
2022-08-26T19:10:08.546Z,18.00
2022-08-26T19:12:37.768Z,18.85
2022-08-26T19:15:06.445Z,18.35
2022-08-26T19:17:34.235Z,18.13
2022-08-26T19:20:02.067Z,18.52
2022-08-26T19:22:29.867Z,16.73
2022-08-26T19:24:57.679Z,17.20
2022-08-26T19:27:25.766Z,17.58
2022-08-26T19:29:56.364Z,17.80
2022-08-26T19:32:24.205Z,19.10
2022-08-26T19:34:52.551Z,18.65
2022-08-26T19:37:21.092Z,19.58
2022-08-26T19:39:49.127Z,19.88
2022-08-26T19:42:17.455Z,18.95
2022-08-26T19:45:02.809Z,20.35
2022-08-26T19:47:32.325Z,20.90
2022-08-26T19:50:00.151Z,23.60
2022-08-26T19:52:30.346Z,24.20
2022-08-26T19:54:58.670Z,26.75
2022-08-26T19:57:26.602Z,25.13
2022-08-26T19:59:54.434Z,22.00
2022-08-26T20:02:22.395Z,22.63
2022-08-26T20:04:51.593Z,22.50
2022-08-26T20:07:19.460Z,21.80
2022-08-26T20:09:47.845Z,20.45
2022-08-26T20:12:17.284Z,23.50
2022-08-26T20:14:45.599Z,22.48
2022-08-26T20:17:14.402Z,22.23
2022-08-26T20:19:59.836Z,19.27
2022-08-26T20:22:29.082Z,19.77
2022-08-26T20:24:56.949Z,18.23
2022-08-26T20:27:27.646Z,18.45
2022-08-26T20:30:07.752Z,17.02
2022-08-26T20:32:36.257Z,17.67
2022-08-26T20:35:05.401Z,17.02
2022-08-26T20:37:34.927Z,17.00
2022-08-26T20:40:03.842Z,16.08
2022-08-26T20:42:31.870Z,16.13
2022-08-26T20:44:59.665Z,15.65
2022-08-26T20:47:27.603Z,15.45
2022-08-26T20:49:57.162Z,16.80
2022-08-26T20:52:25.011Z,15.85
2022-08-26T20:54:54.315Z,16.45
2022-08-26T20:57:22.753Z,15.65
2022-08-26T20:59:51.204Z,16.30
2022-08-26T21:02:19.183Z,17.55
2022-08-26T21:04:47.290Z,16.38
2022-08-26T21:07:15.146Z,16.92
2022-08-26T21:09:45.502Z,17.40
2022-08-26T21:12:14.882Z,18.70
2022-08-26T21:14:45.647Z,17.45
2022-08-26T21:17:15.746Z,16.23
2022-08-26T21:19:44.402Z,16.80
2022-08-26T21:22:12.280Z,16.73
2022-08-26T21:24:40.131Z,16.98
2022-08-26T21:27:07.984Z,16.48
2022-08-26T21:29:37.142Z,16.70
2022-08-26T21:32:06.250Z,17.55
2022-08-26T21:34:34.192Z,17.80
2022-08-26T21:37:02.025Z,17.63
2022-08-26T21:39:33.816Z,16.55
2022-08-26T21:42:01.581Z,16.52
2022-08-26T21:44:29.421Z,17.73
2022-08-26T21:46:58.673Z,17.13
2022-08-26T21:49:26.953Z,16.65
2022-08-26T21:51:55.148Z,17.42
2022-08-26T21:54:23.494Z,17.45
2022-08-26T21:56:51.654Z,19.80
2022-08-26T21:59:19.782Z,17.40
2022-08-26T22:01:48.122Z,19.02
2022-08-26T22:04:18.113Z,18.73
2022-08-26T22:06:48.685Z,19.65
2022-08-26T22:09:19.155Z,17.45
2022-08-26T22:11:47.410Z,17.25
2022-08-26T22:14:16.281Z,19.02
2022-08-26T22:16:45.698Z,16.80
2022-08-26T22:19:20.836Z,16.65
2022-08-26T22:21:52.595Z,17.23
2022-08-26T22:24:22.438Z,15.60
2022-08-26T22:26:51.195Z,15.43
2022-08-26T22:29:20.081Z,18.52
2022-08-26T22:31:47.932Z,16.77
2022-08-26T22:34:17.372Z,16.00
2022-08-26T22:36:49.921Z,17.02
2022-08-26T22:39:20.851Z,16.90
2022-08-26T22:41:49.538Z,16.42
2022-08-26T22:44:18.809Z,15.93
2022-08-26T22:46:47.164Z,15.90
2022-08-26T22:49:16.698Z,17.00
2022-08-26T22:51:46.595Z,17.17
2022-08-26T22:54:14.939Z,19.20
2022-08-26T22:56:43.750Z,19.00
2022-08-26T22:59:12.341Z,19.67
2022-08-26T23:01:42.308Z,17.55
2022-08-26T23:04:11.051Z,17.75
2022-08-26T23:06:43.276Z,16.65
2022-08-26T23:09:18.305Z,18.98
2022-08-26T23:11:47.705Z,19.85
2022-08-26T23:14:16.893Z,19.83
2022-08-26T23:16:44.961Z,19.73
2022-08-26T23:19:15.137Z,21.35
2022-08-26T23:21:43.042Z,19.98
2022-08-26T23:24:12.121Z,21.25
2022-08-26T23:26:42.920Z,21.67
2022-08-26T23:29:13.558Z,24.13
2022-08-26T23:31:42.920Z,22.50
2022-08-26T23:34:29.367Z,22.27
2022-08-26T23:36:58.885Z,21.25
2022-08-26T23:39:26.841Z,21.38
2022-08-26T23:41:56.789Z,20.40
2022-08-26T23:44:26.422Z,20.45
2022-08-26T23:46:54.361Z,18.52
2022-08-26T23:49:22.284Z,18.77
2022-08-26T23:52:07.914Z,20.05
2022-08-26T23:54:36.002Z,19.40
2022-08-26T23:57:05.550Z,19.88
2022-08-26T23:59:33.834Z,21.35
